createdAt,value
2019-02-06T00:00:33.207Z,70.30
2019-02-06T00:03:07.928Z,70.30
2019-02-06T00:05:42.990Z,70.30
2019-02-06T00:08:17.210Z,70.30
2019-02-06T00:10:52.353Z,70.30
2019-02-06T00:13:27.160Z,70.30
2019-02-06T00:16:01.584Z,70.30
2019-02-06T00:18:36.584Z,70.50
2019-02-06T00:21:10.848Z,70.50
2019-02-06T00:23:45.417Z,70.50
2019-02-06T00:26:39.531Z,70.50
2019-02-06T00:29:14.323Z,70.60
2019-02-06T00:31:49.124Z,70.60
2019-02-06T00:34:23.879Z,70.60
2019-02-06T00:36:59.500Z,70.60
2019-02-06T00:39:34.092Z,70.70
2019-02-06T00:42:28.083Z,70.70
2019-02-06T00:45:02.787Z,70.70
2019-02-06T00:47:37.431Z,70.80
2019-02-06T00:50:13.514Z,70.90
2019-02-06T00:52:47.831Z,70.80
2019-02-06T00:55:22.524Z,71.00
2019-02-06T00:57:57.405Z,70.90
2019-02-06T01:00:32.269Z,71.20
2019-02-06T01:03:07.494Z,71.10
2019-02-06T01:05:42.057Z,71.00
2019-02-06T01:08:16.836Z,71.00
2019-02-06T01:10:51.236Z,71.10
2019-02-06T01:13:26.267Z,71.00
2019-02-06T01:16:01.234Z,71.00
2019-02-06T01:18:36.029Z,71.00
2019-02-06T01:21:10.941Z,71.00
2019-02-06T01:23:46.015Z,71.00
2019-02-06T01:26:39.321Z,70.90
2019-02-06T01:29:14.103Z,70.90
2019-02-06T01:31:48.693Z,70.90
2019-02-06T01:34:24.225Z,71.10
2019-02-06T01:36:58.855Z,70.90
2019-02-06T01:39:33.922Z,70.90
2019-02-06T01:42:08.740Z,70.80
2019-02-06T01:44:43.916Z,70.90
2019-02-06T01:47:18.127Z,70.90
2019-02-06T01:49:53.739Z,70.90
2019-02-06T01:52:28.767Z,70.80
2019-02-06T01:55:03.478Z,70.80
2019-02-06T01:57:38.641Z,70.90
2019-02-06T02:00:23.568Z,70.90
2019-02-06T02:03:17.574Z,71.00
2019-02-06T02:06:01.916Z,70.90
2019-02-06T02:08:30.328Z,71.00
2019-02-06T02:11:05.275Z,71.00
2019-02-06T02:13:40.153Z,70.90
2019-02-06T02:16:15.438Z,71.00
2019-02-06T02:19:09.618Z,70.90
2019-02-06T02:21:44.006Z,71.00
2019-02-06T02:24:18.731Z,70.80
2019-02-06T02:26:53.505Z,70.80
2019-02-06T02:29:28.027Z,70.70
2019-02-06T02:32:03.337Z,70.70
2019-02-06T02:34:37.861Z,70.80
2019-02-06T02:37:12.741Z,70.60
2019-02-06T02:39:48.394Z,70.70
2019-02-06T02:42:23.199Z,70.70
2019-02-06T02:44:57.918Z,70.70
2019-02-06T02:47:32.735Z,70.60
2019-02-06T02:50:08.194Z,70.70
2019-02-06T02:52:42.944Z,70.60
2019-02-06T02:55:19.243Z,70.50
2019-02-06T02:57:53.680Z,70.60
2019-02-06T03:00:40.693Z,70.50
2019-02-06T03:03:36.596Z,70.50
2019-02-06T03:06:11.295Z,70.40
2019-02-06T03:08:46.072Z,70.40
2019-02-06T03:11:21.036Z,70.40
2019-02-06T03:13:55.692Z,70.30
2019-02-06T03:16:30.716Z,70.30
2019-02-06T03:19:05.723Z,70.30
2019-02-06T03:21:40.837Z,70.20
2019-02-06T03:24:15.521Z,70.30
2019-02-06T03:26:50.322Z,70.20
2019-02-06T03:29:25.617Z,70.10
2019-02-06T03:31:59.889Z,70.00
2019-02-06T03:34:34.683Z,70.00
2019-02-06T03:37:08.958Z,69.90
2019-02-06T03:39:43.569Z,69.90
2019-02-06T03:42:18.350Z,69.90
2019-02-06T03:44:53.189Z,69.80
2019-02-06T03:47:27.729Z,69.80
2019-02-06T03:50:05.668Z,69.80
2019-02-06T03:52:40.587Z,69.70
2019-02-06T03:55:15.033Z,69.60
2019-02-06T03:57:51.446Z,69.60
2019-02-06T04:00:26.307Z,69.60
2019-02-06T04:03:00.603Z,69.60
2019-02-06T04:05:35.402Z,69.50
2019-02-06T04:08:10.368Z,69.50
2019-02-06T04:10:45.014Z,69.50
2019-02-06T04:13:20.069Z,69.40
2019-02-06T04:15:54.618Z,69.40
2019-02-06T04:18:29.507Z,69.40
2019-02-06T04:21:04.769Z,69.20
2019-02-06T04:23:39.663Z,69.30
2019-02-06T04:26:14.267Z,69.20
2019-02-06T04:28:49.057Z,69.10
2019-02-06T04:31:24.075Z,69.00
2019-02-06T04:33:58.585Z,69.00
2019-02-06T04:36:32.993Z,68.90
2019-02-06T04:39:10.038Z,68.90
2019-02-06T04:41:45.179Z,68.80
2019-02-06T04:44:20.516Z,68.80
2019-02-06T04:46:55.334Z,68.80
2019-02-06T04:49:30.086Z,68.80
2019-02-06T04:52:05.466Z,68.70
2019-02-06T04:54:40.515Z,69.20
2019-02-06T04:57:15.004Z,68.40
2019-02-06T04:59:49.894Z,68.40
2019-02-06T05:02:24.482Z,68.30
2019-02-06T05:04:59.395Z,68.40
2019-02-06T05:07:36.316Z,68.30
2019-02-06T05:10:11.921Z,68.30
2019-02-06T05:12:46.339Z,68.30
2019-02-06T05:15:28.573Z,68.20
2019-02-06T05:18:03.006Z,68.10
2019-02-06T05:20:44.482Z,68.00
2019-02-06T05:23:18.717Z,68.00
2019-02-06T05:25:53.576Z,68.10
2019-02-06T05:28:28.093Z,68.00
2019-02-06T05:31:02.890Z,67.90
2019-02-06T05:33:37.534Z,68.00
2019-02-06T05:36:12.515Z,67.90
2019-02-06T05:38:46.830Z,67.90
2019-02-06T05:41:21.929Z,67.80
2019-02-06T05:43:56.790Z,67.80
2019-02-06T05:46:32.792Z,67.70
2019-02-06T05:49:07.851Z,67.60
2019-02-06T05:51:42.695Z,67.60
2019-02-06T05:54:37.730Z,67.50
2019-02-06T05:57:13.770Z,67.40
2019-02-06T05:59:48.665Z,67.40
2019-02-06T06:02:24.084Z,67.30
2019-02-06T06:04:58.518Z,67.20
2019-02-06T06:07:44.745Z,67.20
2019-02-06T06:10:12.450Z,67.10
2019-02-06T06:12:49.665Z,67.10
2019-02-06T06:15:25.140Z,67.00
2019-02-06T06:18:00.196Z,67.00
2019-02-06T06:20:34.778Z,66.90
2019-02-06T06:23:09.535Z,66.90
2019-02-06T06:25:44.231Z,66.80
2019-02-06T06:28:55.447Z,66.70
2019-02-06T06:31:30.302Z,66.60
2019-02-06T06:34:04.842Z,66.50
2019-02-06T06:36:39.846Z,66.50
2019-02-06T06:39:14.420Z,66.40
2019-02-06T06:41:48.794Z,66.30
2019-02-06T06:44:23.225Z,66.40
2019-02-06T06:46:58.494Z,66.20
2019-02-06T06:49:32.709Z,66.10
2019-02-06T06:52:07.519Z,66.10
2019-02-06T06:54:42.375Z,66.10
2019-02-06T06:57:17.495Z,66.00
2019-02-06T06:59:52.075Z,65.90
2019-02-06T07:02:26.914Z,66.00
2019-02-06T07:05:01.939Z,66.00
2019-02-06T07:07:38.612Z,65.90
2019-02-06T07:10:13.485Z,65.80
2019-02-06T07:12:48.560Z,65.60
2019-02-06T07:15:25.334Z,65.50
2019-02-06T07:18:00.053Z,65.50
2019-02-06T07:20:35.151Z,65.50
2019-02-06T07:23:10.097Z,65.40
2019-02-06T07:28:28.438Z,65.20
2019-02-06T07:31:05.940Z,65.10
2019-02-06T07:33:40.081Z,65.00
2019-02-06T07:36:14.854Z,64.90
2019-02-06T07:38:50.550Z,65.80
2019-02-06T07:41:25.088Z,64.80
2019-02-06T07:43:59.554Z,64.60
2019-02-06T07:46:34.185Z,64.60
2019-02-06T07:49:08.757Z,64.50
2019-02-06T07:51:43.513Z,64.20
2019-02-06T07:54:18.494Z,64.30
2019-02-06T07:56:53.289Z,64.20
2019-02-06T07:59:27.751Z,64.10
2019-02-06T08:02:02.395Z,64.10
2019-02-06T08:04:41.260Z,63.90
2019-02-06T08:07:14.701Z,63.90
2019-02-06T08:09:49.404Z,63.80
2019-02-06T08:12:24.273Z,63.80
2019-02-06T08:14:59.306Z,63.70
2019-02-06T08:17:34.016Z,63.60
2019-02-06T08:20:09.013Z,63.70
2019-02-06T08:22:43.992Z,63.60
2019-02-06T08:25:19.534Z,63.70
2019-02-06T08:27:54.220Z,63.50
2019-02-06T08:30:39.947Z,63.40
2019-02-06T08:33:14.572Z,63.30
2019-02-06T08:35:50.565Z,63.30
2019-02-06T08:38:25.332Z,63.30
2019-02-06T08:41:00.146Z,63.10
2019-02-06T08:43:35.058Z,63.20
2019-02-06T08:46:09.999Z,63.00
2019-02-06T08:48:46.756Z,63.00
2019-02-06T08:51:21.719Z,63.10
2019-02-06T08:54:14.325Z,63.10
2019-02-06T08:56:49.364Z,62.90
2019-02-06T08:59:23.790Z,62.80
2019-02-06T09:01:58.128Z,62.50
2019-02-06T09:04:32.713Z,62.80
2019-02-06T09:07:07.628Z,62.80
2019-02-06T09:09:43.583Z,62.80
2019-02-06T09:12:19.215Z,62.80
2019-02-06T09:14:53.991Z,62.10
2019-02-06T09:17:28.739Z,62.70
2019-02-06T09:20:02.855Z,62.80
2019-02-06T09:22:38.577Z,62.60
2019-02-06T09:25:13.794Z,62.60
2019-02-06T09:27:48.639Z,62.60
2019-02-06T09:30:28.691Z,62.60
2019-02-06T09:33:04.163Z,62.80
2019-02-06T09:35:39.010Z,62.60
2019-02-06T09:38:13.454Z,62.50
2019-02-06T09:40:49.509Z,62.50
2019-02-06T09:43:24.141Z,62.50
2019-02-06T09:45:59.198Z,63.30
2019-02-06T09:48:33.260Z,62.50
2019-02-06T09:51:07.863Z,62.40
2019-02-06T09:53:42.822Z,62.40
2019-02-06T09:56:17.104Z,62.40
2019-02-06T09:58:51.553Z,62.40
2019-02-06T10:01:26.281Z,62.40
2019-02-06T10:04:01.382Z,62.40
2019-02-06T10:06:36.564Z,62.30
2019-02-06T10:09:30.446Z,62.30
2019-02-06T10:12:04.874Z,62.20
2019-02-06T10:14:39.912Z,62.30
2019-02-06T10:17:14.484Z,62.30
2019-02-06T10:19:48.960Z,62.20
2019-02-06T10:22:25.047Z,62.30
2019-02-06T10:25:09.302Z,62.30
2019-02-06T10:27:44.464Z,62.20
2019-02-06T10:30:23.636Z,62.30
2019-02-06T10:32:58.326Z,62.40
2019-02-06T10:35:33.973Z,62.40
2019-02-06T10:38:08.896Z,62.40
2019-02-06T10:40:43.310Z,62.50
2019-02-06T10:43:17.990Z,62.50
2019-02-06T10:45:53.551Z,63.40
2019-02-06T10:48:28.495Z,62.50
2019-02-06T10:51:02.615Z,62.60
2019-02-06T10:53:37.756Z,62.60
2019-02-06T10:56:12.410Z,62.70
2019-02-06T10:58:47.016Z,62.60
2019-02-06T11:01:21.472Z,62.60
2019-02-06T11:03:56.061Z,62.80
2019-02-06T11:06:30.823Z,62.60
2019-02-06T11:09:05.973Z,62.60
2019-02-06T11:11:40.207Z,62.60
2019-02-06T11:14:14.915Z,62.70
2019-02-06T11:16:50.043Z,62.70
2019-02-06T11:19:24.486Z,61.70
2019-02-06T11:21:59.123Z,59.80
2019-02-06T11:24:38.302Z,58.10
2019-02-06T11:27:13.132Z,56.50
2019-02-06T11:29:48.530Z,55.10
2019-02-06T11:32:22.909Z,53.70
2019-02-06T11:34:57.686Z,52.50
2019-02-06T11:37:32.271Z,51.50
2019-02-06T11:40:08.015Z,50.80
2019-02-06T11:42:42.468Z,50.00
2019-02-06T11:45:18.479Z,49.30
2019-02-06T11:47:53.365Z,48.70
2019-02-06T11:50:35.219Z,48.30
2019-02-06T11:53:10.771Z,49.40
2019-02-06T11:55:45.563Z,50.50
2019-02-06T11:58:20.639Z,50.20
2019-02-06T12:01:12.365Z,49.70
2019-02-06T12:03:46.927Z,50.50
2019-02-06T12:06:22.556Z,52.10
2019-02-06T12:08:57.279Z,51.90
2019-02-06T12:11:31.724Z,51.60
2019-02-06T12:14:06.762Z,52.20
2019-02-06T12:16:41.728Z,53.40
2019-02-06T12:19:16.784Z,53.00
2019-02-06T12:21:51.455Z,52.40
2019-02-06T12:24:26.409Z,51.70
2019-02-06T12:27:01.368Z,52.50
2019-02-06T12:29:35.759Z,53.70
2019-02-06T12:32:11.668Z,53.70
2019-02-06T12:34:46.331Z,53.20
2019-02-06T12:37:23.757Z,52.80
2019-02-06T12:39:58.425Z,52.50
2019-02-06T12:42:32.982Z,53.60
2019-02-06T12:45:07.795Z,54.50
2019-02-06T12:47:42.264Z,53.80
2019-02-06T12:50:17.105Z,54.50
2019-02-06T12:52:53.620Z,55.70
2019-02-06T12:55:33.633Z,55.20
2019-02-06T12:58:08.263Z,54.30
2019-02-06T13:00:43.567Z,53.50
2019-02-06T13:03:18.403Z,54.10
2019-02-06T13:05:52.936Z,55.10
2019-02-06T13:08:28.098Z,55.50
2019-02-06T13:11:02.776Z,54.60
2019-02-06T13:13:37.604Z,55.80
2019-02-06T13:16:12.288Z,56.10
2019-02-06T13:18:47.357Z,55.20
2019-02-06T13:21:22.085Z,54.30
2019-02-06T13:23:56.481Z,55.20
2019-02-06T13:26:30.903Z,56.10
2019-02-06T13:29:05.625Z,55.60
2019-02-06T13:31:39.923Z,55.60
2019-02-06T13:34:15.604Z,55.70
2019-02-06T13:39:43.892Z,56.10
2019-02-06T13:42:18.511Z,56.50
2019-02-06T13:44:53.548Z,56.80
2019-02-06T13:47:27.858Z,57.20
2019-02-06T13:50:02.810Z,57.60
2019-02-06T13:52:37.364Z,57.90
2019-02-06T13:55:14.582Z,58.20
2019-02-06T13:57:48.959Z,58.50
2019-02-06T14:00:25.741Z,58.90
2019-02-06T14:03:00.541Z,59.10
2019-02-06T14:05:35.766Z,59.40
2019-02-06T14:08:12.820Z,60.30
2019-02-06T14:10:58.418Z,59.80
2019-02-06T14:13:23.453Z,59.90
2019-02-06T14:15:58.142Z,60.00
2019-02-06T14:18:52.003Z,61.10
2019-02-06T14:21:26.191Z,60.60
2019-02-06T14:24:27.566Z,60.50
2019-02-06T14:27:48.981Z,60.70
2019-02-06T14:30:57.748Z,60.80
2019-02-06T14:37:28.758Z,61.00
2019-02-06T14:40:42.748Z,61.20
2019-02-06T14:43:48.234Z,61.50
2019-02-06T14:46:56.699Z,61.80
2019-02-06T14:49:54.140Z,62.00
2019-02-06T14:52:58.547Z,62.00
2019-02-06T14:55:54.207Z,62.20
2019-02-06T14:59:12.857Z,62.30
2019-02-06T15:01:59.841Z,62.70
2019-02-06T15:05:07.240Z,63.60
2019-02-06T15:07:52.204Z,62.90
2019-02-06T15:10:39.680Z,63.10
2019-02-06T15:17:39.325Z,63.30
2019-02-06T15:20:53.673Z,64.10
2019-02-06T15:23:58.101Z,63.30
2019-02-06T15:27:05.101Z,63.40
2019-02-06T15:30:06.501Z,63.70
2019-02-06T15:33:29.417Z,63.80
2019-02-06T15:36:22.269Z,63.90
2019-02-06T15:39:34.785Z,63.80
2019-02-06T15:42:23.419Z,64.00
2019-02-06T15:45:20.899Z,64.00
2019-02-06T15:48:06.652Z,64.30
2019-02-06T15:51:11.031Z,64.30
2019-02-06T15:54:01.301Z,64.40
2019-02-06T15:56:59.535Z,64.40
2019-02-06T16:00:22.397Z,64.60
2019-02-06T16:03:53.304Z,64.60
2019-02-06T16:06:50.402Z,64.60
2019-02-06T16:10:32.753Z,64.70
2019-02-06T16:13:21.499Z,64.80
2019-02-06T16:16:36.330Z,64.90
2019-02-06T16:20:04.783Z,65.10
2019-02-06T16:23:27.021Z,65.20
2019-02-06T16:26:39.459Z,65.20
2019-02-06T16:29:38.380Z,65.20
2019-02-06T16:32:45.589Z,65.50
2019-02-06T16:35:41.631Z,65.50
2019-02-06T16:38:54.718Z,65.50
2019-02-06T16:42:08.734Z,65.60
2019-02-06T16:45:25.437Z,65.50
2019-02-06T16:48:57.919Z,65.50
2019-02-06T16:52:14.730Z,65.50
2019-02-06T16:55:28.059Z,65.50
2019-02-06T16:58:40.553Z,65.60
2019-02-06T17:02:00.705Z,65.70
2019-02-06T17:04:49.908Z,65.80
2019-02-06T17:08:14.662Z,65.80
2019-02-06T17:11:17.695Z,65.80
2019-02-06T17:14:47.596Z,66.00
2019-02-06T17:17:49.527Z,66.00
2019-02-06T17:20:56.288Z,66.00
2019-02-06T17:23:50.044Z,66.10
2019-02-06T17:26:50.028Z,66.10
2019-02-06T17:30:10.903Z,66.20
2019-02-06T17:33:23.507Z,66.20
2019-02-06T17:36:54.040Z,66.20
2019-02-06T17:40:14.606Z,66.30
2019-02-06T17:43:34.224Z,66.30
2019-02-06T17:46:52.600Z,66.50
2019-02-06T17:50:06.950Z,66.40
2019-02-06T17:52:49.670Z,66.50
2019-02-06T17:55:30.592Z,66.60
2019-02-06T17:58:07.141Z,66.80
2019-02-06T18:00:48.534Z,66.70
2019-02-06T18:03:23.102Z,66.80
2019-02-06T18:05:57.663Z,66.90
2019-02-06T18:08:32.583Z,67.70
2019-02-06T18:11:08.093Z,66.90
2019-02-06T18:13:42.842Z,66.90
2019-02-06T18:16:21.477Z,67.00
2019-02-06T18:18:54.267Z,67.00
2019-02-06T18:21:28.774Z,67.10
2019-02-06T18:24:03.684Z,67.00
2019-02-06T18:26:39.074Z,67.00
2019-02-06T18:29:13.587Z,67.10
2019-02-06T18:31:48.788Z,67.00
2019-02-06T18:34:22.815Z,67.10
2019-02-06T18:36:57.820Z,67.10
2019-02-06T18:39:51.639Z,67.10
2019-02-06T18:42:36.575Z,67.10
2019-02-06T18:45:02.184Z,67.00
2019-02-06T18:50:31.224Z,67.10
2019-02-06T18:53:05.729Z,67.20
2019-02-06T18:55:40.991Z,67.10
2019-02-06T18:58:15.854Z,67.20
2019-02-06T19:00:50.774Z,67.20
2019-02-06T19:03:27.461Z,67.20
2019-02-06T19:06:02.845Z,67.30
2019-02-06T19:08:40.026Z,67.30
2019-02-06T19:11:14.484Z,67.30
2019-02-06T19:13:49.057Z,67.30
2019-02-06T19:16:23.949Z,67.40
2019-02-06T19:19:25.163Z,67.30
2019-02-06T19:21:53.457Z,67.30
2019-02-06T19:24:28.180Z,67.40
2019-02-06T19:27:03.341Z,67.40
2019-02-06T19:29:37.824Z,67.40
2019-02-06T19:32:12.870Z,67.40
2019-02-06T19:34:48.391Z,67.50
2019-02-06T19:37:23.211Z,68.40
2019-02-06T19:39:58.001Z,67.60
2019-02-06T19:42:33.005Z,67.60
2019-02-06T19:45:07.894Z,67.60
2019-02-06T19:47:42.945Z,67.70
2019-02-06T19:50:24.498Z,67.70
2019-02-06T19:52:59.275Z,67.70
2019-02-06T19:55:37.530Z,67.60
2019-02-06T19:58:12.310Z,67.70
2019-02-06T20:00:47.190Z,67.80
2019-02-06T20:03:41.009Z,67.80
2019-02-06T20:06:33.976Z,67.80
2019-02-06T20:09:16.068Z,67.80
2019-02-06T20:11:50.946Z,67.80
2019-02-06T20:14:25.737Z,67.80
2019-02-06T20:17:00.981Z,68.00
2019-02-06T20:19:35.929Z,68.00
2019-02-06T20:22:11.043Z,68.00
2019-02-06T20:24:45.805Z,68.00
2019-02-06T20:27:20.767Z,68.00
2019-02-06T20:29:55.882Z,68.00
2019-02-06T20:32:49.809Z,68.00
2019-02-06T20:35:24.494Z,68.10
2019-02-06T20:38:00.294Z,68.10
2019-02-06T20:40:36.261Z,68.10
2019-02-06T20:43:21.470Z,68.10
2019-02-06T20:45:47.625Z,68.10
2019-02-06T20:48:22.638Z,68.10
2019-02-06T20:50:57.137Z,68.20
2019-02-06T20:53:32.371Z,68.20
2019-02-06T20:56:07.063Z,68.20
2019-02-06T20:58:41.446Z,68.20
2019-02-06T21:01:16.139Z,68.20
2019-02-06T21:03:50.996Z,68.30
2019-02-06T21:06:25.761Z,68.20
2019-02-06T21:09:00.484Z,68.30
2019-02-06T21:11:35.794Z,68.30
2019-02-06T21:14:10.550Z,68.40
2019-02-06T21:16:45.634Z,68.40
2019-02-06T21:19:20.513Z,68.40
2019-02-06T21:21:55.636Z,68.40
2019-02-06T21:24:30.414Z,68.50
2019-02-06T21:27:05.459Z,68.50
2019-02-06T21:29:40.036Z,68.50
2019-02-06T21:32:18.304Z,68.70
2019-02-06T21:34:53.342Z,68.60
2019-02-06T21:37:28.295Z,68.60
2019-02-06T21:40:02.838Z,68.70
2019-02-06T21:42:37.864Z,68.70
2019-02-06T21:45:13.596Z,68.80
2019-02-06T21:47:48.112Z,68.70
2019-02-06T21:50:24.760Z,68.80
2019-02-06T21:52:59.511Z,68.80
2019-02-06T21:55:53.258Z,68.80
2019-02-06T21:58:28.425Z,68.90
2019-02-06T22:01:03.381Z,68.80
2019-02-06T22:03:38.293Z,68.90
2019-02-06T22:06:13.572Z,68.90
2019-02-06T22:08:47.811Z,68.90
2019-02-06T22:11:23.445Z,69.00
2019-02-06T22:13:58.487Z,69.00
2019-02-06T22:16:34.156Z,69.00
2019-02-06T22:19:09.154Z,69.10
2019-02-06T22:21:44.101Z,69.00
2019-02-06T22:24:18.782Z,69.20
2019-02-06T22:26:54.791Z,69.20
2019-02-06T22:29:29.333Z,69.20
2019-02-06T22:32:04.594Z,69.20
2019-02-06T22:34:41.355Z,69.20
2019-02-06T22:37:17.392Z,69.20
2019-02-06T22:39:52.057Z,69.20
2019-02-06T22:42:28.846Z,69.20
2019-02-06T22:45:22.768Z,69.30
2019-02-06T22:47:57.386Z,69.10
2019-02-06T22:50:32.639Z,69.30
2019-02-06T22:53:07.340Z,69.20
2019-02-06T22:55:42.262Z,69.30
2019-02-06T22:58:16.768Z,69.40
2019-02-06T23:01:20.804Z,69.30
2019-02-06T23:03:55.275Z,69.40
2019-02-06T23:06:30.342Z,69.40
2019-02-06T23:09:05.528Z,69.40
2019-02-06T23:11:40.409Z,69.50
2019-02-06T23:14:17.751Z,69.50
2019-02-06T23:16:51.001Z,70.40
2019-02-06T23:19:27.175Z,69.60
2019-02-06T23:22:01.697Z,69.50
2019-02-06T23:24:36.606Z,69.50
2019-02-06T23:27:11.784Z,69.60
2019-02-06T23:29:46.437Z,69.60
2019-02-06T23:32:20.889Z,69.60
2019-02-06T23:35:14.978Z,69.70
2019-02-06T23:37:56.210Z,69.70
2019-02-06T23:40:31.176Z,69.60
2019-02-06T23:43:05.887Z,69.70
2019-02-06T23:45:40.676Z,69.70
2019-02-06T23:48:15.396Z,69.80
2019-02-06T23:50:50.438Z,69.70
2019-02-06T23:53:25.094Z,69.80
2019-02-06T23:56:00.007Z,69.80
2019-02-06T23:58:34.573Z,69.90
